Test XHTML 1.0 Strict Page for WU-History Testing
Datos historicos para Xert
Diario Historicos para Mayo 3, 2024 unidades:  Ambos    Imperiales   Metrico
« Anterior Dia
Proximo Dia »
Diario Semanal Mensual Anual Personalizado
  Max: Min: Promedio:
Temperatura: 69.8 °F /  21.0 °C 46.4 °F /  8.0 °C 59.2 °F /  15.1 °C
Punto de rocio: 48.2 °F /  9.0 °C 33.8 °F /  1.0 °C 39 °F /  3.9 °C
Humedad: 78% 32% 49%
Viento: 26.7mph /  43km/h - 8.1mph /  13.1km/h
Rafagas: 26.7mph /  43km/h - -
Viento- - SW
Presion: 30.1 in /  1019.3 hPa 30 in /  1016.9 hPa -
Lluvia: 0 in /  0.00 mm    
Historical Graphs
 
 
Observa nuestra WebCam, mapa de radar de tormentas para Europa y mapa del radar de nuvosidad

Weather Camera

Radar Tormentas

Radar Sat24

Radar Meteociel





Condiciones meteorologicas Actuales:

Datos tabulados para Mayo 3, 2024
Hora Temperatura Punto Rocio Presion Viento Viento Rafagas Humedad Tasa lluvia (1 hora) solar Condiciones
00:00 50 °F /  10.0 °C 33.8 °F /  1.0 °C 30.1in /  1017.6hPa Calm     56% 0in /  0.00mm 0.00 W/m2 unknown
00:05 48.2 °F /  9.0 °C 33.8 °F /  1.0 °C 30.1in /  1018.0hPa Calm     58% 0in /  0.00mm 0.00 W/m2 unknown
00:14 48.2 °F /  9.0 °C 35.6 °F /  2.0 °C 30.1in /  1018.0hPa Calm     61% 0in /  0.00mm 0.00 W/m2 unknown
00:19 48.2 °F /  9.0 °C 35.6 °F /  2.0 °C 30.1in /  1018.0hPa Calm   1.2mph /  2km/h 61% 0in /  0.00mm 0.00 W/m2 unknown
00:24 48.2 °F /  9.0 °C 33.8 °F /  1.0 °C 30.1in /  1018.0hPa Calm   1.2mph /  2km/h 59% 0in /  0.00mm 0.00 W/m2 unknown
00:29 48.2 °F /  9.0 °C 33.8 °F /  1.0 °C 30.1in /  1018.0hPa Calm     60% 0in /  0.00mm 0.00 W/m2 unknown
00:34 46.4 °F /  8.0 °C 33.8 °F /  1.0 °C 30.1in /  1018.3hPa Calm     61% 0in /  0.00mm 0.00 W/m2 unknown
00:39 46.4 °F /  8.0 °C 33.8 °F /  1.0 °C 30.1in /  1018.0hPa WNW 3.1mph /  5km/h 3.1mph /  5km/h 61% 0in /  0.00mm 0.00 W/m2 unknown
00:43 46.4 °F /  8.0 °C 33.8 °F /  1.0 °C 30.1in /  1018.0hPa WNW 3.1mph /  5km/h 3.7mph /  6km/h 62% 0in /  0.00mm 0.00 W/m2 unknown
00:49 46.4 °F /  8.0 °C 33.8 °F /  1.0 °C 30.1in /  1018.0hPa WNW 5mph /  8km/h 5mph /  8km/h 62% 0in /  0.00mm 0.00 W/m2 unknown
00:54 46.4 °F /  8.0 °C 33.8 °F /  1.0 °C 30.1in /  1018.0hPa WNW 3.7mph /  6km/h 6.2mph /  10km/h 60% 0in /  0.00mm 0.00 W/m2 unknown
00:59 46.4 °F /  8.0 °C 33.8 °F /  1.0 °C 30.1in /  1018.0hPa WNW 1.9mph /  3km/h 6.2mph /  10km/h 60% 0in /  0.00mm 0.00 W/m2 unknown
01:04 46.4 °F /  8.0 °C 33.8 °F /  1.0 °C 30.1in /  1018.0hPa WNW 1.2mph /  2km/h 5mph /  8km/h 61% 0in /  0.00mm 0.00 W/m2 unknown
01:09 46.4 °F /  8.0 °C 33.8 °F /  1.0 °C 30.1in /  1018.0hPa Calm   3.1mph /  5km/h 62% 0in /  0.00mm 0.00 W/m2 unknown
01:14 46.4 °F /  8.0 °C 33.8 °F /  1.0 °C 30.1in /  1018.0hPa Calm     62% 0in /  0.00mm 0.00 W/m2 unknown
01:19 46.4 °F /  8.0 °C 33.8 °F /  1.0 °C 30.1in /  1018.0hPa Calm     63% 0in /  0.00mm 0.00 W/m2 unknown
01:24 46.4 °F /  8.0 °C 33.8 °F /  1.0 °C 30.1in /  1018.0hPa Calm     63% 0in /  0.00mm 0.00 W/m2 unknown
01:29 46.4 °F /  8.0 °C 33.8 °F /  1.0 °C 30.1in /  1018.3hPa Calm     64% 0in /  0.00mm 0.00 W/m2 unknown
01:34 46.4 °F /  8.0 °C 33.8 °F /  1.0 °C 30.1in /  1018.3hPa Calm     64% 0in /  0.00mm 0.00 W/m2 unknown
01:39 46.4 °F /  8.0 °C 33.8 °F /  1.0 °C 30.1in /  1018.3hPa WNW 5mph /  8km/h 5mph /  8km/h 64% 0in /  0.00mm 0.00 W/m2 unknown
01:44 48.2 °F /  9.0 °C 33.8 °F /  1.0 °C 30.1in /  1018.0hPa WNW 6.2mph /  10km/h 6.2mph /  10km/h 60% 0in /  0.00mm 0.00 W/m2 unknown
01:49 48.2 °F /  9.0 °C 33.8 °F /  1.0 °C 30.1in /  1018.0hPa WNW 5mph /  8km/h 6.2mph /  10km/h 59% 0in /  0.00mm 0.00 W/m2 unknown
01:54 48.2 °F /  9.0 °C 33.8 °F /  1.0 °C 30.1in /  1018.0hPa WNW 3.7mph /  6km/h 6.2mph /  10km/h 57% 0in /  0.00mm 0.00 W/m2 unknown
01:59 50 °F /  10.0 °C 33.8 °F /  1.0 °C 30.1in /  1018.0hPa WNW 5mph /  8km/h 5mph /  8km/h 56% 0in /  0.00mm 0.00 W/m2 unknown
02:04 50 °F /  10.0 °C 33.8 °F /  1.0 °C 30.1in /  1018.0hPa WNW 3.7mph /  6km/h 3.7mph /  6km/h 55% 0in /  0.00mm 0.00 W/m2 unknown
02:09 50 °F /  10.0 °C 33.8 °F /  1.0 °C 30.1in /  1018.0hPa WNW 3.7mph /  6km/h 5mph /  8km/h 54% 0in /  0.00mm 0.00 W/m2 unknown
02:14 50 °F /  10.0 °C 33.8 °F /  1.0 °C 30.1in /  1018.0hPa WNW 5mph /  8km/h 5mph /  8km/h 54% 0in /  0.00mm 0.00 W/m2 unknown
02:19 50 °F /  10.0 °C 33.8 °F /  1.0 °C 30.1in /  1018.0hPa WNW 5mph /  8km/h 5mph /  8km/h 53% 0in /  0.00mm 0.00 W/m2 unknown
02:24 50 °F /  10.0 °C 33.8 °F /  1.0 °C 30.1in /  1018.0hPa WNW 6.2mph /  10km/h 6.2mph /  10km/h 53% 0in /  0.00mm 0.00 W/m2 unknown
02:28 50 °F /  10.0 °C 33.8 °F /  1.0 °C 30.1in /  1017.6hPa WNW 6.2mph /  10km/h 6.2mph /  10km/h 53% 0in /  0.00mm 0.00 W/m2 unknown
02:34 51.8 °F /  11.0 °C 35.6 °F /  2.0 °C 30.1in /  1017.6hPa WNW 8.7mph /  14km/h 8.7mph /  14km/h 53% 0in /  0.00mm 0.00 W/m2 unknown
02:39 53.6 °F /  12.0 °C 35.6 °F /  2.0 °C 30.1in /  1017.6hPa WNW 8.1mph /  13km/h 8.7mph /  14km/h 51% 0in /  0.00mm 0.00 W/m2 unknown
02:44 53.6 °F /  12.0 °C 35.6 °F /  2.0 °C 30.1in /  1017.6hPa WNW 6.2mph /  10km/h 9.9mph /  16km/h 49% 0in /  0.00mm 0.00 W/m2 unknown
02:49 53.6 °F /  12.0 °C 35.6 °F /  2.0 °C 30.1in /  1017.6hPa WNW 8.1mph /  13km/h 8.7mph /  14km/h 48% 0in /  0.00mm 0.00 W/m2 unknown
02:54 55.4 °F /  13.0 °C 35.6 °F /  2.0 °C 30.1in /  1017.6hPa NW 9.9mph /  16km/h 9.9mph /  16km/h 47% 0in /  0.00mm 0.00 W/m2 unknown
02:59 55.4 °F /  13.0 °C 35.6 °F /  2.0 °C 30.1in /  1017.6hPa WNW 3.7mph /  6km/h 9.9mph /  16km/h 46% 0in /  0.00mm 0.00 W/m2 unknown
03:03 55.4 °F /  13.0 °C 35.6 °F /  2.0 °C 30.1in /  1017.6hPa West 1.9mph /  3km/h 9.9mph /  16km/h 46% 0in /  0.00mm 0.00 W/m2 unknown
03:09 55.4 °F /  13.0 °C 35.6 °F /  2.0 °C 30.1in /  1017.6hPa SW 3.7mph /  6km/h 8.7mph /  14km/h 48% 0in /  0.00mm 0.00 W/m2 unknown
03:14 53.6 °F /  12.0 °C 33.8 °F /  1.0 °C 30.1in /  1017.6hPa SW 6.2mph /  10km/h 6.2mph /  10km/h 50% 0in /  0.00mm 0.00 W/m2 unknown
03:19 51.8 °F /  11.0 °C 33.8 °F /  1.0 °C 30.1in /  1017.6hPa SSW 3.7mph /  6km/h 6.8mph /  11km/h 51% 0in /  0.00mm 0.00 W/m2 unknown
03:24 51.8 °F /  11.0 °C 33.8 °F /  1.0 °C 30.1in /  1017.6hPa SSE 3.7mph /  6km/h 6.8mph /  11km/h 52% 0in /  0.00mm 0.00 W/m2 unknown
03:29 50 °F /  10.0 °C 33.8 °F /  1.0 °C 30.1in /  1017.6hPa SE 3.7mph /  6km/h 3.7mph /  6km/h 53% 0in /  0.00mm 0.00 W/m2 unknown
03:34 50 °F /  10.0 °C 33.8 °F /  1.0 °C 30.1in /  1017.6hPa ESE 1.9mph /  3km/h 3.7mph /  6km/h 55% 0in /  0.00mm 0.00 W/m2 unknown
03:39 50 °F /  10.0 °C 33.8 °F /  1.0 °C 30.1in /  1017.6hPa SE 1.9mph /  3km/h 3.7mph /  6km/h 56% 0in /  0.00mm 0.00 W/m2 unknown
03:44 48.2 °F /  9.0 °C 33.8 °F /  1.0 °C 30.1in /  1017.6hPa SE 1.9mph /  3km/h 3.1mph /  5km/h 57% 0in /  0.00mm 0.00 W/m2 unknown
03:49 48.2 °F /  9.0 °C 33.8 °F /  1.0 °C 30.1in /  1017.6hPa SE 1.2mph /  2km/h 1.9mph /  3km/h 57% 0in /  0.00mm 0.00 W/m2 unknown
03:54 50 °F /  10.0 °C 33.8 °F /  1.0 °C 30.1in /  1017.6hPa SW 3.7mph /  6km/h 3.7mph /  6km/h 57% 0in /  0.00mm 0.00 W/m2 unknown
03:59 51.8 °F /  11.0 °C 35.6 °F /  2.0 °C 30.1in /  1017.6hPa SW 6.2mph /  10km/h 6.2mph /  10km/h 55% 0in /  0.00mm 0.00 W/m2 unknown
04:04 51.8 °F /  11.0 °C 35.6 °F /  2.0 °C 30.1in /  1017.6hPa SSW 1.9mph /  3km/h 6.2mph /  10km/h 53% 0in /  0.00mm 0.00 W/m2 unknown
04:09 51.8 °F /  11.0 °C 35.6 °F /  2.0 °C 30.1in /  1017.6hPa WSW 1.9mph /  3km/h 5mph /  8km/h 53% 0in /  0.00mm 0.00 W/m2 unknown
04:14 51.8 °F /  11.0 °C 35.6 °F /  2.0 °C 30.1in /  1017.6hPa SSW 3.7mph /  6km/h 3.7mph /  6km/h 53% 0in /  0.00mm 0.00 W/m2 unknown
04:19 51.8 °F /  11.0 °C 35.6 °F /  2.0 °C 30.1in /  1017.6hPa SW 3.1mph /  5km/h 3.7mph /  6km/h 53% 0in /  0.00mm 0.00 W/m2 unknown
04:23 51.8 °F /  11.0 °C 35.6 °F /  2.0 °C 30.1in /  1017.6hPa WSW 6.2mph /  10km/h 6.2mph /  10km/h 53% 0in /  0.00mm 0.00 W/m2 unknown
04:29 51.8 °F /  11.0 °C 35.6 °F /  2.0 °C 30.1in /  1017.6hPa WSW 8.1mph /  13km/h 8.1mph /  13km/h 53% 0in /  0.00mm 0.00 W/m2 unknown
04:34 51.8 °F /  11.0 °C 35.6 °F /  2.0 °C 30.1in /  1017.6hPa WSW 8.1mph /  13km/h 8.1mph /  13km/h 52% 0in /  0.00mm 0.00 W/m2 unknown
04:39 53.6 °F /  12.0 °C 35.6 °F /  2.0 °C 30.1in /  1017.6hPa West 11.2mph /  18km/h 11.2mph /  18km/h 52% 0in /  0.00mm 0.00 W/m2 unknown
04:44 53.6 °F /  12.0 °C 35.6 °F /  2.0 °C 30.1in /  1017.6hPa West 11.2mph /  18km/h 11.2mph /  18km/h 50% 0in /  0.00mm 0.00 W/m2 unknown
04:49 55.4 °F /  13.0 °C 35.6 °F /  2.0 °C 30.1in /  1017.6hPa West 9.9mph /  16km/h 11.8mph /  19km/h 49% 0in /  0.00mm 0.00 W/m2 unknown
04:54 55.4 °F /  13.0 °C 35.6 °F /  2.0 °C 30.1in /  1017.6hPa West 8.7mph /  14km/h 11.8mph /  19km/h 49% 0in /  0.00mm 0.00 W/m2 unknown
04:58 55.4 °F /  13.0 °C 37.4 °F /  3.0 °C 30.1in /  1017.6hPa West 11.2mph /  18km/h 11.8mph /  19km/h 49% 0in /  0.00mm 0.00 W/m2 unknown
05:04 55.4 °F /  13.0 °C 37.4 °F /  3.0 °C 30.1in /  1017.6hPa West 14.3mph /  23km/h 14.3mph /  23km/h 49% 0in /  0.00mm 0.00 W/m2 unknown
05:09 57.2 °F /  14.0 °C 37.4 °F /  3.0 °C 30.1in /  1017.6hPa West 13mph /  21km/h 14.3mph /  23km/h 48% 0in /  0.00mm 0.00 W/m2 unknown
05:13 57.2 °F /  14.0 °C 37.4 °F /  3.0 °C 30.1in /  1017.6hPa WNW 16.8mph /  27km/h 19.3mph /  31km/h 48% 0in /  0.00mm 0.00 W/m2 unknown
05:19 57.2 °F /  14.0 °C 37.4 °F /  3.0 °C 30.1in /  1017.6hPa WNW 16.8mph /  27km/h 19.3mph /  31km/h 48% 0in /  0.00mm 0.00 W/m2 unknown
05:24 57.2 °F /  14.0 °C 37.4 °F /  3.0 °C 30.1in /  1017.6hPa WNW 19.3mph /  31km/h 19.3mph /  31km/h 48% 0in /  0.00mm 0.00 W/m2 unknown
05:29 57.2 °F /  14.0 °C 37.4 °F /  3.0 °C 30.1in /  1017.6hPa WNW 16.8mph /  27km/h 19.3mph /  31km/h 48% 0in /  0.00mm 0.00 W/m2 unknown
05:34 57.2 °F /  14.0 °C 37.4 °F /  3.0 °C 30.1in /  1017.6hPa WNW 21.7mph /  35km/h 21.7mph /  35km/h 48% 0in /  0.00mm 0.00 W/m2 unknown
05:38 57.2 °F /  14.0 °C 37.4 °F /  3.0 °C 30.1in /  1017.6hPa WNW 19.9mph /  32km/h 21.7mph /  35km/h 48% 0in /  0.00mm 0.00 W/m2 unknown
05:44 57.2 °F /  14.0 °C 37.4 °F /  3.0 °C 30.1in /  1017.6hPa WNW 24.2mph /  39km/h 24.2mph /  39km/h 48% 0in /  0.00mm 0.00 W/m2 unknown
05:49 57.2 °F /  14.0 °C 37.4 °F /  3.0 °C 30.1in /  1017.6hPa West 21.7mph /  35km/h 24.9mph /  40km/h 48% 0in /  0.00mm 0.00 W/m2 unknown
05:54 57.2 °F /  14.0 °C 37.4 °F /  3.0 °C 30.1in /  1017.6hPa West 21.7mph /  35km/h 21.7mph /  35km/h 48% 0in /  0.00mm 0.00 W/m2 unknown
05:59 57.2 °F /  14.0 °C 37.4 °F /  3.0 °C 30.1in /  1017.6hPa WNW 16.2mph /  26km/h 21.7mph /  35km/h 48% 0in /  0.00mm 0.00 W/m2 unknown
06:03 57.2 °F /  14.0 °C 37.4 °F /  3.0 °C 30.1in /  1017.6hPa WNW 18mph /  29km/h 19.3mph /  31km/h 48% 0in /  0.00mm 0.00 W/m2 unknown
06:05 57.2 °F /  14.0 °C 37.4 °F /  3.0 °C 30.1in /  1017.6hPa WSW 8.1mph /  13km/h 18mph /  29km/h 48% 0in /  0.00mm 0.00 W/m2 unknown
06:14 55.4 °F /  13.0 °C 37.4 °F /  3.0 °C 30.1in /  1018.0hPa West 18mph /  29km/h 18mph /  29km/h 49% 0in /  0.00mm 0.00 W/m2 unknown
06:19 55.4 °F /  13.0 °C 37.4 °F /  3.0 °C 30.1in /  1018.0hPa West 14.9mph /  24km/h 19.3mph /  31km/h 49% 0in /  0.00mm 0.00 W/m2 unknown
06:24 55.4 °F /  13.0 °C 37.4 °F /  3.0 °C 30.1in /  1018.0hPa West 14.3mph /  23km/h 19.3mph /  31km/h 49% 0in /  0.00mm 0.00 W/m2 unknown
06:29 55.4 °F /  13.0 °C 37.4 °F /  3.0 °C 30.1in /  1018.0hPa West 14.3mph /  23km/h 14.9mph /  24km/h 50% 0in /  0.00mm 0.00 W/m2 unknown
06:34 55.4 °F /  13.0 °C 35.6 °F /  2.0 °C 30.1in /  1018.0hPa West 11.8mph /  19km/h 14.9mph /  24km/h 50% 0in /  0.00mm 0.00 W/m2 unknown
06:38 53.6 °F /  12.0 °C 37.4 °F /  3.0 °C 30.1in /  1018.0hPa WNW 8.1mph /  13km/h 14.9mph /  24km/h 51% 0in /  0.00mm 0.00 W/m2 unknown
06:44 53.6 °F /  12.0 °C 35.6 °F /  2.0 °C 30.1in /  1018.3hPa WNW 9.9mph /  16km/h 11.8mph /  19km/h 51% 0in /  0.00mm 0.00 W/m2 unknown
06:49 53.6 °F /  12.0 °C 35.6 °F /  2.0 °C 30.1in /  1018.3hPa WNW 8.1mph /  13km/h 9.9mph /  16km/h 51% 0in /  0.00mm 0.00 W/m2 unknown
06:54 53.6 °F /  12.0 °C 35.6 °F /  2.0 °C 30.1in /  1018.3hPa West 8.7mph /  14km/h 8.7mph /  14km/h 52% 0in /  0.00mm 0.00 W/m2 unknown
06:59 53.6 °F /  12.0 °C 35.6 °F /  2.0 °C 30.1in /  1018.3hPa WNW 8.7mph /  14km/h 8.7mph /  14km/h 52% 0in /  0.00mm 0.00 W/m2 unknown
07:04 53.6 °F /  12.0 °C 35.6 °F /  2.0 °C 30.1in /  1018.3hPa West 8.7mph /  14km/h 8.7mph /  14km/h 52% 0in /  0.00mm 0.00 W/m2 unknown
07:09 53.6 °F /  12.0 °C 37.4 °F /  3.0 °C 30.1in /  1018.3hPa West 6.8mph /  11km/h 8.7mph /  14km/h 52% 0in /  0.00mm 0.00 W/m2 unknown
07:14 53.6 °F /  12.0 °C 35.6 °F /  2.0 °C 30.1in /  1018.3hPa West 8.1mph /  13km/h 8.7mph /  14km/h 52% 0in /  0.00mm 0.00 W/m2 unknown
07:19 53.6 °F /  12.0 °C 35.6 °F /  2.0 °C 30.1in /  1018.3hPa WNW 8.7mph /  14km/h 8.7mph /  14km/h 53% 0in /  0.00mm 0.00 W/m2 unknown
07:24 53.6 °F /  12.0 °C 35.6 °F /  2.0 °C 30.1in /  1018.3hPa WNW 3.7mph /  6km/h 8.7mph /  14km/h 53% 0in /  0.00mm 0.00 W/m2 unknown
07:29 53.6 °F /  12.0 °C 35.6 °F /  2.0 °C 30.1in /  1018.6hPa NW 5mph /  8km/h 8.7mph /  14km/h 53% 0in /  0.00mm 0.00 W/m2 unknown
07:34 51.8 °F /  11.0 °C 35.6 °F /  2.0 °C 30.1in /  1018.6hPa NNW 8.1mph /  13km/h 8.1mph /  13km/h 54% 0in /  0.00mm 0.00 W/m2 unknown
07:39 53.6 °F /  12.0 °C 35.6 °F /  2.0 °C 30.1in /  1018.6hPa NW 6.2mph /  10km/h 8.1mph /  13km/h 53% 0in /  0.00mm 0.00 W/m2 unknown
07:43 53.6 °F /  12.0 °C 35.6 °F /  2.0 °C 30.1in /  1018.6hPa WNW 3.7mph /  6km/h 8.1mph /  13km/h 53% 0in /  0.00mm 0.00 W/m2 unknown
07:49 53.6 °F /  12.0 °C 37.4 °F /  3.0 °C 30.1in /  1018.6hPa WNW 3.1mph /  5km/h 6.2mph /  10km/h 53% 0in /  0.00mm 0.00 W/m2 unknown
07:54 53.6 °F /  12.0 °C 37.4 °F /  3.0 °C 30.1in /  1018.6hPa WNW 5mph /  8km/h 5mph /  8km/h 53% 0in /  0.00mm 0.00 W/m2 unknown
07:59 53.6 °F /  12.0 °C 37.4 °F /  3.0 °C 30.1in /  1019.0hPa WNW 6.2mph /  10km/h 6.8mph /  11km/h 52% 0in /  0.00mm 0.00 W/m2 unknown
08:04 53.6 °F /  12.0 °C 37.4 °F /  3.0 °C 30.1in /  1019.0hPa WNW 6.8mph /  11km/h 6.8mph /  11km/h 52% 0in /  0.00mm 0.00 W/m2 unknown
08:08 55.4 °F /  13.0 °C 37.4 °F /  3.0 °C 30.1in /  1019.0hPa NW 5mph /  8km/h 6.8mph /  11km/h 51% 0in /  0.00mm 0.00 W/m2 unknown
08:14 55.4 °F /  13.0 °C 37.4 °F /  3.0 °C 30.1in /  1019.0hPa WNW 1.9mph /  3km/h 6.2mph /  10km/h 51% 0in /  0.00mm 0.00 W/m2 unknown
08:19 55.4 °F /  13.0 °C 37.4 °F /  3.0 °C 30.1in /  1019.0hPa NW 1.9mph /  3km/h 6.2mph /  10km/h 51% 0in /  0.00mm 0.00 W/m2 unknown
08:24 57.2 °F /  14.0 °C 37.4 °F /  3.0 °C 30.1in /  1019.0hPa NW 1.9mph /  3km/h 3.1mph /  5km/h 49% 0in /  0.00mm 0.00 W/m2 unknown
08:29 57.2 °F /  14.0 °C 37.4 °F /  3.0 °C 30.1in /  1019.0hPa West 6.8mph /  11km/h 6.8mph /  11km/h 49% 0in /  0.00mm 0.00 W/m2 unknown
08:34 57.2 °F /  14.0 °C 37.4 °F /  3.0 °C 30.1in /  1019.0hPa West 8.7mph /  14km/h 8.7mph /  14km/h 48% 0in /  0.00mm 0.00 W/m2 unknown
08:39 57.2 °F /  14.0 °C 37.4 °F /  3.0 °C 30.1in /  1019.0hPa West 9.9mph /  16km/h 9.9mph /  16km/h 48% 0in /  0.00mm 0.00 W/m2 unknown
08:43 57.2 °F /  14.0 °C 37.4 °F /  3.0 °C 30.1in /  1019.0hPa West 9.9mph /  16km/h 11.2mph /  18km/h 48% 0in /  0.00mm 0.00 W/m2 unknown
08:49 57.2 °F /  14.0 °C 37.4 °F /  3.0 °C 30.1in /  1019.0hPa WSW 6.2mph /  10km/h 11.2mph /  18km/h 47% 0in /  0.00mm 0.00 W/m2 unknown
08:54 59 °F /  15.0 °C 37.4 °F /  3.0 °C 30.1in /  1019.0hPa WSW 6.2mph /  10km/h 9.9mph /  16km/h 47% 0in /  0.00mm 0.00 W/m2 unknown
08:59 59 °F /  15.0 °C 39.2 °F /  4.0 °C 30.1in /  1019.0hPa WSW 6.2mph /  10km/h 6.2mph /  10km/h 47% 0in /  0.00mm 0.00 W/m2 unknown
09:04 59 °F /  15.0 °C 37.4 °F /  3.0 °C 30.1in /  1019.0hPa West 6.2mph /  10km/h 6.8mph /  11km/h 45% 0in /  0.00mm 0.00 W/m2 unknown
09:09 59 °F /  15.0 °C 37.4 °F /  3.0 °C 30.1in /  1019.0hPa West 3.7mph /  6km/h 6.2mph /  10km/h 44% 0in /  0.00mm 0.00 W/m2 unknown
09:14 60.8 °F /  16.0 °C 37.4 °F /  3.0 °C 30.1in /  1019.3hPa WSW 3.1mph /  5km/h 6.8mph /  11km/h 44% 0in /  0.00mm 0.00 W/m2 unknown
09:19 60.8 °F /  16.0 °C 37.4 °F /  3.0 °C 30.1in /  1019.3hPa WSW 6.2mph /  10km/h 6.2mph /  10km/h 43% 0in /  0.00mm 0.00 W/m2 unknown
09:24 60.8 °F /  16.0 °C 35.6 °F /  2.0 °C 30.1in /  1019.3hPa WSW 5mph /  8km/h 6.8mph /  11km/h 39% 0in /  0.00mm 0.00 W/m2 unknown
09:29 60.8 °F /  16.0 °C 35.6 °F /  2.0 °C 30.1in /  1019.3hPa SW 6.2mph /  10km/h 6.8mph /  11km/h 39% 0in /  0.00mm 0.00 W/m2 unknown
09:33 62.6 °F /  17.0 °C 35.6 °F /  2.0 °C 30.1in /  1019.3hPa SW 6.2mph /  10km/h 6.2mph /  10km/h 38% 0in /  0.00mm 0.00 W/m2 unknown
09:38 62.6 °F /  17.0 °C 35.6 °F /  2.0 °C 30.1in /  1019.3hPa West 8.7mph /  14km/h 8.7mph /  14km/h 38% 0in /  0.00mm 0.00 W/m2 unknown
09:44 62.6 °F /  17.0 °C 35.6 °F /  2.0 °C 30.1in /  1019.3hPa WSW 6.2mph /  10km/h 8.7mph /  14km/h 37% 0in /  0.00mm 0.00 W/m2 unknown
09:49 62.6 °F /  17.0 °C 35.6 °F /  2.0 °C 30.1in /  1019.3hPa North 6.2mph /  10km/h 8.1mph /  13km/h 37% 0in /  0.00mm 0.00 W/m2 unknown
09:54 62.6 °F /  17.0 °C 35.6 °F /  2.0 °C 30.1in /  1019.3hPa WSW 8.7mph /  14km/h 8.7mph /  14km/h 37% 0in /  0.00mm 0.00 W/m2 unknown
09:59 62.6 °F /  17.0 °C 35.6 °F /  2.0 °C 30.1in /  1019.3hPa West 5mph /  8km/h 11.8mph /  19km/h 37% 0in /  0.00mm 0.00 W/m2 unknown
10:04 62.6 °F /  17.0 °C 35.6 °F /  2.0 °C 30.1in /  1019.3hPa North 3.1mph /  5km/h 11.8mph /  19km/h 37% 0in /  0.00mm 0.00 W/m2 unknown
10:08 62.6 °F /  17.0 °C 35.6 °F /  2.0 °C 30.1in /  1019.3hPa SSW 8.1mph /  13km/h 8.1mph /  13km/h 36% 0in /  0.00mm 0.00 W/m2 unknown
10:14 62.6 °F /  17.0 °C 35.6 °F /  2.0 °C 30.1in /  1019.3hPa SW 8.7mph /  14km/h 8.7mph /  14km/h 37% 0in /  0.00mm 0.00 W/m2 unknown
10:19 62.6 °F /  17.0 °C 37.4 °F /  3.0 °C 30.1in /  1019.3hPa WSW 8.7mph /  14km/h 9.9mph /  16km/h 37% 0in /  0.00mm 0.00 W/m2 unknown
10:24 62.6 °F /  17.0 °C 35.6 °F /  2.0 °C 30.1in /  1019.3hPa West 9.9mph /  16km/h 11.2mph /  18km/h 37% 0in /  0.00mm 0.00 W/m2 unknown
10:29 64.4 °F /  18.0 °C 35.6 °F /  2.0 °C 30.1in /  1019.3hPa SSE 6.2mph /  10km/h 11.2mph /  18km/h 36% 0in /  0.00mm 0.00 W/m2 unknown
10:34 64.4 °F /  18.0 °C 35.6 °F /  2.0 °C 30.1in /  1019.3hPa West 8.7mph /  14km/h 8.7mph /  14km/h 36% 0in /  0.00mm 0.00 W/m2 unknown
10:39 62.6 °F /  17.0 °C 37.4 °F /  3.0 °C 30.1in /  1019.3hPa West 8.1mph /  13km/h 8.7mph /  14km/h 37% 0in /  0.00mm 0.00 W/m2 unknown
10:44 62.6 °F /  17.0 °C 35.6 °F /  2.0 °C 30.1in /  1019.3hPa WNW 8.7mph /  14km/h 8.7mph /  14km/h 37% 0in /  0.00mm 0.00 W/m2 unknown
10:49 62.6 °F /  17.0 °C 35.6 °F /  2.0 °C 30.1in /  1019.3hPa WNW 6.8mph /  11km/h 11.2mph /  18km/h 36% 0in /  0.00mm 0.00 W/m2 unknown
10:54 64.4 °F /  18.0 °C 37.4 °F /  3.0 °C 30.1in /  1019.0hPa WNW 3.7mph /  6km/h 11.2mph /  18km/h 37% 0in /  0.00mm 0.00 W/m2 unknown
10:59 64.4 °F /  18.0 °C 35.6 °F /  2.0 °C 30.1in /  1019.3hPa SSE 14.3mph /  23km/h 14.3mph /  23km/h 36% 0in /  0.00mm 0.00 W/m2 unknown
11:04 64.4 °F /  18.0 °C 35.6 °F /  2.0 °C 30.1in /  1019.0hPa SE 13mph /  21km/h 14.3mph /  23km/h 35% 0in /  0.00mm 0.00 W/m2 unknown
11:09 64.4 °F /  18.0 °C 35.6 °F /  2.0 °C 30.1in /  1019.0hPa SE 11.8mph /  19km/h 14.3mph /  23km/h 34% 0in /  0.00mm 0.00 W/m2 unknown
11:14 64.4 °F /  18.0 °C 35.6 °F /  2.0 °C 30.1in /  1019.3hPa SSE 8.7mph /  14km/h 14.3mph /  23km/h 35% 0in /  0.00mm 0.00 W/m2 unknown
11:19 64.4 °F /  18.0 °C 35.6 °F /  2.0 °C 30.1in /  1019.3hPa South 11.8mph /  19km/h 11.8mph /  19km/h 34% 0in /  0.00mm 0.00 W/m2 unknown
11:24 64.4 °F /  18.0 °C 35.6 °F /  2.0 °C 30.1in /  1019.3hPa SSE 9.9mph /  16km/h 14.9mph /  24km/h 34% 0in /  0.00mm 0.00 W/m2 unknown
11:29 64.4 °F /  18.0 °C 35.6 °F /  2.0 °C 30.1in /  1019.0hPa SSE 9.9mph /  16km/h 14.9mph /  24km/h 34% 0in /  0.00mm 0.00 W/m2 unknown
11:34 64.4 °F /  18.0 °C 35.6 °F /  2.0 °C 30.1in /  1019.3hPa South 19.9mph /  32km/h 19.9mph /  32km/h 34% 0in /  0.00mm 0.00 W/m2 unknown
11:38 64.4 °F /  18.0 °C 35.6 °F /  2.0 °C 30.1in /  1019.0hPa SSE 11.2mph /  18km/h 19.9mph /  32km/h 34% 0in /  0.00mm 0.00 W/m2 unknown
11:44 64.4 °F /  18.0 °C 35.6 °F /  2.0 °C 30.1in /  1019.3hPa South 11.8mph /  19km/h 16.8mph /  27km/h 34% 0in /  0.00mm 0.00 W/m2 unknown
11:49 64.4 °F /  18.0 °C 35.6 °F /  2.0 °C 30.1in /  1019.0hPa SSE 11.8mph /  19km/h 16.2mph /  26km/h 33% 0in /  0.00mm 0.00 W/m2 unknown
11:54 64.4 °F /  18.0 °C 35.6 °F /  2.0 °C 30.1in /  1019.0hPa SSE 14.3mph /  23km/h 16.2mph /  26km/h 34% 0in /  0.00mm 0.00 W/m2 unknown
11:59 64.4 °F /  18.0 °C 35.6 °F /  2.0 °C 30.1in /  1019.0hPa South 14.9mph /  24km/h 14.9mph /  24km/h 33% 0in /  0.00mm 0.00 W/m2 unknown
12:04 64.4 °F /  18.0 °C 35.6 °F /  2.0 °C 30.1in /  1019.0hPa SSE 13mph /  21km/h 16.2mph /  26km/h 34% 0in /  0.00mm 0.00 W/m2 unknown
12:05 64.4 °F /  18.0 °C 35.6 °F /  2.0 °C 30.1in /  1019.0hPa SSE 5mph /  8km/h 16.2mph /  26km/h 33% 0in /  0.00mm 0.00 W/m2 unknown
12:14 64.4 °F /  18.0 °C 35.6 °F /  2.0 °C 30.1in /  1019.0hPa SSW 9.9mph /  16km/h 14.9mph /  24km/h 34% 0in /  0.00mm 0.00 W/m2 unknown
12:19 66.2 °F /  19.0 °C 35.6 °F /  2.0 °C 30.1in /  1018.6hPa South 13mph /  21km/h 13mph /  21km/h 32% 0in /  0.00mm 0.00 W/m2 unknown
12:24 66.2 °F /  19.0 °C 35.6 °F /  2.0 °C 30.1in /  1018.6hPa SSE 6.8mph /  11km/h 13mph /  21km/h 33% 0in /  0.00mm 0.00 W/m2 unknown
12:29 66.2 °F /  19.0 °C 35.6 °F /  2.0 °C 30.1in /  1018.6hPa SSE 18mph /  29km/h 18mph /  29km/h 33% 0in /  0.00mm 0.00 W/m2 unknown
12:34 66.2 °F /  19.0 °C 39.2 °F /  4.0 °C 30.1in /  1018.6hPa SE 14.9mph /  24km/h 18mph /  29km/h 38% 0in /  0.00mm 0.00 W/m2 unknown
12:38 64.4 °F /  18.0 °C 39.2 °F /  4.0 °C 30.1in /  1018.6hPa ESE 26.7mph /  43km/h 26.7mph /  43km/h 38% 0in /  0.00mm 0.00 W/m2 unknown
12:44 64.4 °F /  18.0 °C 39.2 °F /  4.0 °C 30.1in /  1018.6hPa SE 14.3mph /  23km/h 26.7mph /  43km/h 38% 0in /  0.00mm 0.00 W/m2 unknown
12:49 64.4 °F /  18.0 °C 39.2 °F /  4.0 °C 30.1in /  1018.6hPa SE 16.2mph /  26km/h 26.7mph /  43km/h 39% 0in /  0.00mm 0.00 W/m2 unknown
12:54 66.2 °F /  19.0 °C 37.4 °F /  3.0 °C 30.1in /  1018.6hPa SSW 8.1mph /  13km/h 16.8mph /  27km/h 36% 0in /  0.00mm 0.00 W/m2 unknown
12:59 66.2 °F /  19.0 °C 37.4 °F /  3.0 °C 30.1in /  1018.6hPa SSE 16.2mph /  26km/h 16.2mph /  26km/h 35% 0in /  0.00mm 0.00 W/m2 unknown
13:04 66.2 °F /  19.0 °C 39.2 °F /  4.0 °C 30.1in /  1018.6hPa SSE 16.8mph /  27km/h 18mph /  29km/h 37% 0in /  0.00mm 0.00 W/m2 unknown
13:09 66.2 °F /  19.0 °C 39.2 °F /  4.0 °C 30.1in /  1018.6hPa SSE 16.8mph /  27km/h 18mph /  29km/h 37% 0in /  0.00mm 0.00 W/m2 unknown
13:14 66.2 °F /  19.0 °C 39.2 °F /  4.0 °C 30.1in /  1018.3hPa SE 13mph /  21km/h 16.8mph /  27km/h 36% 0in /  0.00mm 0.00 W/m2 unknown
13:19 66.2 °F /  19.0 °C 39.2 °F /  4.0 °C 30.1in /  1018.3hPa SE 14.9mph /  24km/h 18mph /  29km/h 38% 0in /  0.00mm 0.00 W/m2 unknown
13:24 66.2 °F /  19.0 °C 39.2 °F /  4.0 °C 30.1in /  1018.3hPa SE 14.3mph /  23km/h 18mph /  29km/h 38% 0in /  0.00mm 0.00 W/m2 unknown
13:29 66.2 °F /  19.0 °C 39.2 °F /  4.0 °C 30.1in /  1018.3hPa SE 16.2mph /  26km/h 16.2mph /  26km/h 38% 0in /  0.00mm 0.00 W/m2 unknown
13:34 66.2 °F /  19.0 °C 39.2 °F /  4.0 °C 30.1in /  1018.3hPa SE 14.3mph /  23km/h 16.8mph /  27km/h 39% 0in /  0.00mm 0.00 W/m2 unknown
13:38 66.2 °F /  19.0 °C 39.2 °F /  4.0 °C 30.1in /  1018.3hPa SE 11.8mph /  19km/h 14.3mph /  23km/h 37% 0in /  0.00mm 0.00 W/m2 unknown
13:44 66.2 °F /  19.0 °C 39.2 °F /  4.0 °C 30.1in /  1018.3hPa SE 14.3mph /  23km/h 14.9mph /  24km/h 37% 0in /  0.00mm 0.00 W/m2 unknown
13:49 66.2 °F /  19.0 °C 39.2 °F /  4.0 °C 30.1in /  1018.0hPa SSE 19.9mph /  32km/h 19.9mph /  32km/h 37% 0in /  0.00mm 0.00 W/m2 unknown
13:54 66.2 °F /  19.0 °C 39.2 °F /  4.0 °C 30.1in /  1018.3hPa ESE 16.8mph /  27km/h 19.9mph /  32km/h 37% 0in /  0.00mm 0.00 W/m2 unknown
13:59 66.2 °F /  19.0 °C 39.2 °F /  4.0 °C 30.1in /  1018.0hPa ESE 11.8mph /  19km/h 19.9mph /  32km/h 38% 0in /  0.00mm 0.00 W/m2 unknown
14:04 66.2 °F /  19.0 °C 39.2 °F /  4.0 °C 30.1in /  1018.0hPa ESE 11.2mph /  18km/h 16.8mph /  27km/h 38% 0in /  0.00mm 0.00 W/m2 unknown
14:09 66.2 °F /  19.0 °C 39.2 °F /  4.0 °C 30.1in /  1018.0hPa ESE 16.2mph /  26km/h 16.2mph /  26km/h 37% 0in /  0.00mm 0.00 W/m2 unknown
14:14 66.2 °F /  19.0 °C 39.2 °F /  4.0 °C 30.1in /  1018.0hPa SSE 14.9mph /  24km/h 16.2mph /  26km/h 38% 0in /  0.00mm 0.00 W/m2 unknown
14:19 66.2 °F /  19.0 °C 39.2 °F /  4.0 °C 30.1in /  1018.0hPa SSE 13mph /  21km/h 14.9mph /  24km/h 38% 0in /  0.00mm 0.00 W/m2 unknown
14:24 66.2 °F /  19.0 °C 41 °F /  5.0 °C 30.1in /  1017.6hPa SE 9.9mph /  16km/h 14.9mph /  24km/h 38% 0in /  0.00mm 0.00 W/m2 unknown
14:29 68 °F /  20.0 °C 41 °F /  5.0 °C 30.1in /  1017.6hPa SSE 14.3mph /  23km/h 16.2mph /  26km/h 38% 0in /  0.00mm 0.00 W/m2 unknown
14:34 68 °F /  20.0 °C 39.2 °F /  4.0 °C 30.1in /  1018.0hPa South 11.8mph /  19km/h 16.2mph /  26km/h 37% 0in /  0.00mm 0.00 W/m2 unknown
14:39 66.2 °F /  19.0 °C 39.2 °F /  4.0 °C 30.1in /  1018.0hPa South 9.9mph /  16km/h 14.3mph /  23km/h 37% 0in /  0.00mm 0.00 W/m2 unknown
14:44 66.2 °F /  19.0 °C 39.2 °F /  4.0 °C 30.1in /  1018.0hPa SE 8.7mph /  14km/h 8.7mph /  14km/h 37% 0in /  0.00mm 0.00 W/m2 unknown
14:49 66.2 °F /  19.0 °C 39.2 °F /  4.0 °C 30.1in /  1018.0hPa NE 9.9mph /  16km/h 11.8mph /  19km/h 38% 0in /  0.00mm 0.00 W/m2 unknown
14:54 66.2 °F /  19.0 °C 39.2 °F /  4.0 °C 30.1in /  1018.0hPa ESE 8.7mph /  14km/h 9.9mph /  16km/h 39% 0in /  0.00mm 0.00 W/m2 unknown
14:59 66.2 °F /  19.0 °C 41 °F /  5.0 °C 30.1in /  1018.0hPa ESE 9.9mph /  16km/h 11.2mph /  18km/h 41% 0in /  0.00mm 0.00 W/m2 unknown
15:04 66.2 °F /  19.0 °C 41 °F /  5.0 °C 30.1in /  1018.0hPa ESE 9.9mph /  16km/h 11.8mph /  19km/h 41% 0in /  0.00mm 0.00 W/m2 unknown
15:09 64.4 °F /  18.0 °C 41 °F /  5.0 °C 30.1in /  1018.0hPa SE 11.8mph /  19km/h 14.9mph /  24km/h 42% 0in /  0.00mm 0.00 W/m2 unknown
15:14 66.2 °F /  19.0 °C 41 °F /  5.0 °C 30.1in /  1018.0hPa SE 8.7mph /  14km/h 14.9mph /  24km/h 42% 0in /  0.00mm 0.00 W/m2 unknown
15:19 66.2 °F /  19.0 °C 39.2 °F /  4.0 °C 30.1in /  1017.6hPa SE 11.2mph /  18km/h 11.8mph /  19km/h 37% 0in /  0.00mm 0.00 W/m2 unknown
15:24 66.2 °F /  19.0 °C 39.2 °F /  4.0 °C 30.1in /  1017.6hPa SSW 8.1mph /  13km/h 14.3mph /  23km/h 37% 0in /  0.00mm 0.00 W/m2 unknown
15:29 66.2 °F /  19.0 °C 41 °F /  5.0 °C 30.1in /  1017.6hPa SSE 9.9mph /  16km/h 14.3mph /  23km/h 39% 0in /  0.00mm 0.00 W/m2 unknown
15:34 68 °F /  20.0 °C 41 °F /  5.0 °C 30.1in /  1017.6hPa SSE 13mph /  21km/h 13mph /  21km/h 38% 0in /  0.00mm 0.00 W/m2 unknown
15:39 68 °F /  20.0 °C 41 °F /  5.0 °C 30.1in /  1017.6hPa SSE 11.2mph /  18km/h 13mph /  21km/h 38% 0in /  0.00mm 0.00 W/m2 unknown
15:44 68 °F /  20.0 °C 41 °F /  5.0 °C 30.1in /  1017.6hPa SSW 11.8mph /  19km/h 18mph /  29km/h 38% 0in /  0.00mm 0.00 W/m2 unknown
15:49 68 °F /  20.0 °C 41 °F /  5.0 °C 30in /  1017.3hPa SSE 9.9mph /  16km/h 18mph /  29km/h 38% 0in /  0.00mm 0.00 W/m2 unknown
15:54 68 °F /  20.0 °C 41 °F /  5.0 °C 30in /  1017.3hPa SSE 14.3mph /  23km/h 14.3mph /  23km/h 38% 0in /  0.00mm 0.00 W/m2 unknown
15:58 68 °F /  20.0 °C 39.2 °F /  4.0 °C 30in /  1017.3hPa SSW 8.7mph /  14km/h 14.3mph /  23km/h 37% 0in /  0.00mm 0.00 W/m2 unknown
16:04 68 °F /  20.0 °C 41 °F /  5.0 °C 30in /  1017.3hPa ENE 3.7mph /  6km/h 14.3mph /  23km/h 37% 0in /  0.00mm 0.00 W/m2 unknown
16:09 68 °F /  20.0 °C 41 °F /  5.0 °C 30in /  1017.3hPa South 8.7mph /  14km/h 8.7mph /  14km/h 37% 0in /  0.00mm 0.00 W/m2 unknown
16:14 68 °F /  20.0 °C 41 °F /  5.0 °C 30in /  1017.3hPa SW 9.9mph /  16km/h 9.9mph /  16km/h 37% 0in /  0.00mm 0.00 W/m2 unknown
16:19 68 °F /  20.0 °C 41 °F /  5.0 °C 30in /  1017.3hPa SE 8.1mph /  13km/h 9.9mph /  16km/h 37% 0in /  0.00mm 0.00 W/m2 unknown
16:24 68 °F /  20.0 °C 41 °F /  5.0 °C 30in /  1017.3hPa SE 16.2mph /  26km/h 16.2mph /  26km/h 37% 0in /  0.00mm 0.00 W/m2 unknown
16:28 68 °F /  20.0 °C 39.2 °F /  4.0 °C 30in /  1017.3hPa SSE 11.8mph /  19km/h 21.1mph /  34km/h 36% 0in /  0.00mm 0.00 W/m2 unknown
16:34 68 °F /  20.0 °C 41 °F /  5.0 °C 30in /  1017.3hPa SSE 14.3mph /  23km/h 21.1mph /  34km/h 37% 0in /  0.00mm 0.00 W/m2 unknown
16:39 68 °F /  20.0 °C 39.2 °F /  4.0 °C 30in /  1017.3hPa South 11.8mph /  19km/h 14.3mph /  23km/h 36% 0in /  0.00mm 0.00 W/m2 unknown
16:44 68 °F /  20.0 °C 39.2 °F /  4.0 °C 30in /  1017.3hPa SSE 14.3mph /  23km/h 14.3mph /  23km/h 36% 0in /  0.00mm 0.00 W/m2 unknown
16:49 68 °F /  20.0 °C 39.2 °F /  4.0 °C 30in /  1017.3hPa South 8.1mph /  13km/h 16.2mph /  26km/h 36% 0in /  0.00mm 0.00 W/m2 unknown
16:54 68 °F /  20.0 °C 41 °F /  5.0 °C 30in /  1017.3hPa SW 8.1mph /  13km/h 9.9mph /  16km/h 36% 0in /  0.00mm 0.00 W/m2 unknown
16:59 69.8 °F /  21.0 °C 41 °F /  5.0 °C 30in /  1017.3hPa South 6.2mph /  10km/h 8.1mph /  13km/h 37% 0in /  0.00mm 0.00 W/m2 unknown
17:04 69.8 °F /  21.0 °C 42.8 °F /  6.0 °C 30in /  1017.3hPa SE 11.8mph /  19km/h 11.8mph /  19km/h 39% 0in /  0.00mm 0.00 W/m2 unknown
17:09 69.8 °F /  21.0 °C 46.4 °F /  8.0 °C 30in /  1017.3hPa South 11.2mph /  18km/h 11.8mph /  19km/h 44% 0in /  0.00mm 0.00 W/m2 unknown
17:14 68 °F /  20.0 °C 46.4 °F /  8.0 °C 30in /  1017.3hPa SSE 11.8mph /  19km/h 13mph /  21km/h 44% 0in /  0.00mm 0.00 W/m2 unknown
17:19 68 °F /  20.0 °C 41 °F /  5.0 °C 30in /  1017.3hPa SSE 14.3mph /  23km/h 14.3mph /  23km/h 37% 0in /  0.00mm 0.00 W/m2 unknown
17:24 68 °F /  20.0 °C 39.2 °F /  4.0 °C 30in /  1016.9hPa South 9.9mph /  16km/h 14.3mph /  23km/h 35% 0in /  0.00mm 0.00 W/m2 unknown
17:29 68 °F /  20.0 °C 39.2 °F /  4.0 °C 30in /  1016.9hPa SSW 6.8mph /  11km/h 16.2mph /  26km/h 35% 0in /  0.00mm 0.00 W/m2 unknown
17:34 68 °F /  20.0 °C 39.2 °F /  4.0 °C 30in /  1016.9hPa SSW 11.8mph /  19km/h 11.8mph /  19km/h 35% 0in /  0.00mm 0.00 W/m2 unknown
17:39 68 °F /  20.0 °C 39.2 °F /  4.0 °C 30in /  1016.9hPa SE 11.8mph /  19km/h 11.8mph /  19km/h 35% 0in /  0.00mm 0.00 W/m2 unknown
17:44 68 °F /  20.0 °C 39.2 °F /  4.0 °C 30in /  1016.9hPa SE 9.9mph /  16km/h 11.8mph /  19km/h 35% 0in /  0.00mm 0.00 W/m2 unknown
17:49 69.8 °F /  21.0 °C 41 °F /  5.0 °C 30in /  1016.9hPa SE 6.8mph /  11km/h 9.9mph /  16km/h 35% 0in /  0.00mm 0.00 W/m2 unknown
17:54 68 °F /  20.0 °C 46.4 °F /  8.0 °C 30in /  1016.9hPa East 14.3mph /  23km/h 14.3mph /  23km/h 45% 0in /  0.00mm 0.00 W/m2 unknown
17:59 68 °F /  20.0 °C 46.4 °F /  8.0 °C 30in /  1016.9hPa ESE 8.1mph /  13km/h 14.3mph /  23km/h 45% 0in /  0.00mm 0.00 W/m2 unknown
18:04 68 °F /  20.0 °C 48.2 °F /  9.0 °C 30in /  1016.9hPa SE 6.8mph /  11km/h 14.3mph /  23km/h 47% 0in /  0.00mm 0.00 W/m2 unknown
18:05 68 °F /  20.0 °C 46.4 °F /  8.0 °C 30in /  1016.9hPa SE 6.2mph /  10km/h 9.9mph /  16km/h 47% 0in /  0.00mm 0.00 W/m2 unknown
18:14 68 °F /  20.0 °C 46.4 °F /  8.0 °C 30in /  1016.9hPa East 11.2mph /  18km/h 11.2mph /  18km/h 47% 0in /  0.00mm 0.00 W/m2 unknown
18:19 68 °F /  20.0 °C 46.4 °F /  8.0 °C 30in /  1016.9hPa East 8.7mph /  14km/h 11.2mph /  18km/h 47% 0in /  0.00mm 0.00 W/m2 unknown
18:24 68 °F /  20.0 °C 46.4 °F /  8.0 °C 30in /  1016.9hPa SE 6.2mph /  10km/h 11.2mph /  18km/h 46% 0in /  0.00mm 0.00 W/m2 unknown
18:29 68 °F /  20.0 °C 46.4 °F /  8.0 °C 30in /  1016.9hPa South 9.9mph /  16km/h 9.9mph /  16km/h 45% 0in /  0.00mm 0.00 W/m2 unknown
18:34 68 °F /  20.0 °C 42.8 °F /  6.0 °C 30in /  1016.9hPa South 13mph /  21km/h 13mph /  21km/h 39% 0in /  0.00mm 0.00 W/m2 unknown
18:39 68 °F /  20.0 °C 44.6 °F /  7.0 °C 30in /  1017.3hPa SSE 8.1mph /  13km/h 16.2mph /  26km/h 44% 0in /  0.00mm 0.00 W/m2 unknown
18:44 68 °F /  20.0 °C 42.8 °F /  6.0 °C 30in /  1016.9hPa South 9.9mph /  16km/h 9.9mph /  16km/h 40% 0in /  0.00mm 0.00 W/m2 unknown
18:49 68 °F /  20.0 °C 42.8 °F /  6.0 °C 30in /  1017.3hPa SSE 14.9mph /  24km/h 14.9mph /  24km/h 40% 0in /  0.00mm 0.00 W/m2 unknown
18:54 68 °F /  20.0 °C 42.8 °F /  6.0 °C 30in /  1017.3hPa SSE 11.8mph /  19km/h 14.9mph /  24km/h 41% 0in /  0.00mm 0.00 W/m2 unknown
18:59 66.2 °F /  19.0 °C 42.8 °F /  6.0 °C 30in /  1017.3hPa South 14.3mph /  23km/h 18mph /  29km/h 42% 0in /  0.00mm 0.00 W/m2 unknown
19:04 66.2 °F /  19.0 °C 42.8 °F /  6.0 °C 30in /  1017.3hPa SSW 13mph /  21km/h 18mph /  29km/h 44% 0in /  0.00mm 0.00 W/m2 unknown
19:09 66.2 °F /  19.0 °C 42.8 °F /  6.0 °C 30in /  1017.3hPa SSW 8.1mph /  13km/h 16.8mph /  27km/h 44% 0in /  0.00mm 0.00 W/m2 unknown
19:13 64.4 °F /  18.0 °C 42.8 °F /  6.0 °C 30in /  1017.3hPa SSW 13mph /  21km/h 14.3mph /  23km/h 44% 0in /  0.00mm 0.00 W/m2 unknown
19:19 64.4 °F /  18.0 °C 42.8 °F /  6.0 °C 30in /  1017.3hPa SW 11.8mph /  19km/h 14.3mph /  23km/h 45% 0in /  0.00mm 0.00 W/m2 unknown
19:24 64.4 °F /  18.0 °C 42.8 °F /  6.0 °C 30in /  1017.3hPa South 14.3mph /  23km/h 14.3mph /  23km/h 46% 0in /  0.00mm 0.00 W/m2 unknown
19:29 64.4 °F /  18.0 °C 42.8 °F /  6.0 °C 30in /  1017.3hPa South 11.2mph /  18km/h 14.3mph /  23km/h 47% 0in /  0.00mm 0.00 W/m2 unknown
19:34 64.4 °F /  18.0 °C 44.6 °F /  7.0 °C 30.1in /  1017.6hPa SW 8.1mph /  13km/h 14.3mph /  23km/h 48% 0in /  0.00mm 0.00 W/m2 unknown
19:39 64.4 °F /  18.0 °C 44.6 °F /  7.0 °C 30.1in /  1017.6hPa SW 8.7mph /  14km/h 9.9mph /  16km/h 48% 0in /  0.00mm 0.00 W/m2 unknown
19:44 64.4 °F /  18.0 °C 44.6 °F /  7.0 °C 30.1in /  1017.6hPa SW 9.9mph /  16km/h 9.9mph /  16km/h 49% 0in /  0.00mm 0.00 W/m2 unknown
19:49 64.4 °F /  18.0 °C 44.6 °F /  7.0 °C 30.1in /  1017.6hPa South 9.9mph /  16km/h 13mph /  21km/h 49% 0in /  0.00mm 0.00 W/m2 unknown
19:54 64.4 °F /  18.0 °C 42.8 °F /  6.0 °C 30.1in /  1017.6hPa South 11.2mph /  18km/h 13mph /  21km/h 48% 0in /  0.00mm 0.00 W/m2 unknown
19:59 64.4 °F /  18.0 °C 44.6 °F /  7.0 °C 30.1in /  1017.6hPa SSW 11.8mph /  19km/h 11.8mph /  19km/h 49% 0in /  0.00mm 0.00 W/m2 unknown
20:04 62.6 °F /  17.0 °C 44.6 °F /  7.0 °C 30.1in /  1017.6hPa South 8.1mph /  13km/h 11.8mph /  19km/h 50% 0in /  0.00mm 0.00 W/m2 unknown
20:09 62.6 °F /  17.0 °C 44.6 °F /  7.0 °C 30.1in /  1017.6hPa SW 6.8mph /  11km/h 11.8mph /  19km/h 51% 0in /  0.00mm 0.00 W/m2 unknown
20:14 62.6 °F /  17.0 °C 44.6 °F /  7.0 °C 30.1in /  1017.6hPa SSW 6.2mph /  10km/h 8.1mph /  13km/h 53% 0in /  0.00mm 0.00 W/m2 unknown
20:19 62.6 °F /  17.0 °C 46.4 °F /  8.0 °C 30.1in /  1017.6hPa SSW 6.8mph /  11km/h 6.8mph /  11km/h 54% 0in /  0.00mm 0.00 W/m2 unknown
20:23 62.6 °F /  17.0 °C 46.4 °F /  8.0 °C 30.1in /  1018.0hPa SW 5mph /  8km/h 5mph /  8km/h 56% 0in /  0.00mm 0.00 W/m2 unknown
20:29 62.6 °F /  17.0 °C 46.4 °F /  8.0 °C 30.1in /  1017.6hPa SSW 3.1mph /  5km/h 8.1mph /  13km/h 57% 0in /  0.00mm 0.00 W/m2 unknown
20:34 60.8 °F /  16.0 °C 46.4 °F /  8.0 °C 30.1in /  1017.6hPa SSW 3.7mph /  6km/h 5mph /  8km/h 58% 0in /  0.00mm 0.00 W/m2 unknown
20:38 60.8 °F /  16.0 °C 46.4 °F /  8.0 °C 30.1in /  1018.0hPa SSW 3.1mph /  5km/h 3.7mph /  6km/h 59% 0in /  0.00mm 0.00 W/m2 unknown
20:44 60.8 °F /  16.0 °C 46.4 °F /  8.0 °C 30.1in /  1018.0hPa SSW 1.2mph /  2km/h 3.7mph /  6km/h 60% 0in /  0.00mm 0.00 W/m2 unknown
20:49 60.8 °F /  16.0 °C 46.4 °F /  8.0 °C 30.1in /  1018.0hPa South 5mph /  8km/h 5mph /  8km/h 60% 0in /  0.00mm 0.00 W/m2 unknown
20:54 60.8 °F /  16.0 °C 46.4 °F /  8.0 °C 30.1in /  1018.0hPa South 3.1mph /  5km/h 5mph /  8km/h 61% 0in /  0.00mm 0.00 W/m2 unknown
20:59 60.8 °F /  16.0 °C 46.4 °F /  8.0 °C 30.1in /  1018.0hPa SSW 6.2mph /  10km/h 6.2mph /  10km/h 61% 0in /  0.00mm 0.00 W/m2 unknown
21:04 59 °F /  15.0 °C 46.4 °F /  8.0 °C 30.1in /  1018.0hPa South 3.7mph /  6km/h 6.8mph /  11km/h 62% 0in /  0.00mm 0.00 W/m2 unknown
21:09 59 °F /  15.0 °C 46.4 °F /  8.0 °C 30.1in /  1018.0hPa SSW 3.7mph /  6km/h 6.8mph /  11km/h 62% 0in /  0.00mm 0.00 W/m2 unknown
21:14 59 °F /  15.0 °C 46.4 °F /  8.0 °C 30.1in /  1018.0hPa South 3.7mph /  6km/h 5mph /  8km/h 62% 0in /  0.00mm 0.00 W/m2 unknown
21:19 59 °F /  15.0 °C 46.4 °F /  8.0 °C 30.1in /  1018.3hPa SSW 5mph /  8km/h 5mph /  8km/h 63% 0in /  0.00mm 0.00 W/m2 unknown
21:21 59 °F /  15.0 °C 46.4 °F /  8.0 °C 30.1in /  1018.0hPa SSW 3.1mph /  5km/h 5mph /  8km/h 63% 0in /  0.00mm 0.00 W/m2 unknown
21:29 59 °F /  15.0 °C 46.4 °F /  8.0 °C 30.1in /  1018.3hPa Calm   3.1mph /  5km/h 63% 0in /  0.00mm 0.00 W/m2 unknown
21:34 59 °F /  15.0 °C 46.4 °F /  8.0 °C 30.1in /  1018.3hPa Calm   3.7mph /  6km/h 65% 0in /  0.00mm 0.00 W/m2 unknown
21:39 57.2 °F /  14.0 °C 46.4 °F /  8.0 °C 30.1in /  1018.3hPa WNW 3.1mph /  5km/h 3.1mph /  5km/h 67% 0in /  0.00mm 0.00 W/m2 unknown
21:44 55.4 °F /  13.0 °C 44.6 °F /  7.0 °C 30.1in /  1018.3hPa WNW 3.1mph /  5km/h 3.1mph /  5km/h 68% 0in /  0.00mm 0.00 W/m2 unknown
21:48 55.4 °F /  13.0 °C 44.6 °F /  7.0 °C 30.1in /  1018.3hPa WNW 3.7mph /  6km/h 3.7mph /  6km/h 69% 0in /  0.00mm 0.00 W/m2 unknown
21:54 55.4 °F /  13.0 °C 44.6 °F /  7.0 °C 30.1in /  1018.3hPa WNW 3.1mph /  5km/h 3.7mph /  6km/h 70% 0in /  0.00mm 0.00 W/m2 unknown
21:59 55.4 °F /  13.0 °C 44.6 °F /  7.0 °C 30.1in /  1018.3hPa WNW 3.7mph /  6km/h 3.7mph /  6km/h 70% 0in /  0.00mm 0.00 W/m2 unknown
22:04 53.6 °F /  12.0 °C 44.6 °F /  7.0 °C 30.1in /  1018.3hPa WNW 3.1mph /  5km/h 3.7mph /  6km/h 71% 0in /  0.00mm 0.00 W/m2 unknown
22:08 53.6 °F /  12.0 °C 44.6 °F /  7.0 °C 30.1in /  1018.3hPa WNW 5mph /  8km/h 5mph /  8km/h 72% 0in /  0.00mm 0.00 W/m2 unknown
22:14 53.6 °F /  12.0 °C 44.6 °F /  7.0 °C 30.1in /  1018.3hPa WNW 3.7mph /  6km/h 5mph /  8km/h 72% 0in /  0.00mm 0.00 W/m2 unknown
22:19 53.6 °F /  12.0 °C 44.6 °F /  7.0 °C 30.1in /  1018.3hPa NW 3.7mph /  6km/h 5mph /  8km/h 72% 0in /  0.00mm 0.00 W/m2 unknown
22:24 53.6 °F /  12.0 °C 44.6 °F /  7.0 °C 30.1in /  1018.3hPa WNW 3.7mph /  6km/h 5mph /  8km/h 72% 0in /  0.00mm 0.00 W/m2 unknown
22:29 53.6 °F /  12.0 °C 44.6 °F /  7.0 °C 30.1in /  1018.3hPa WNW 5mph /  8km/h 5mph /  8km/h 72% 0in /  0.00mm 0.00 W/m2 unknown
22:34 53.6 °F /  12.0 °C 44.6 °F /  7.0 °C 30.1in /  1018.3hPa WNW 5mph /  8km/h 5mph /  8km/h 73% 0in /  0.00mm 0.00 W/m2 unknown
22:39 53.6 °F /  12.0 °C 46.4 °F /  8.0 °C 30.1in /  1018.3hPa WNW 3.7mph /  6km/h 5mph /  8km/h 73% 0in /  0.00mm 0.00 W/m2 unknown
22:44 53.6 °F /  12.0 °C 44.6 °F /  7.0 °C 30.1in /  1018.3hPa WNW 3.1mph /  5km/h 5mph /  8km/h 73% 0in /  0.00mm 0.00 W/m2 unknown
22:49 53.6 °F /  12.0 °C 44.6 °F /  7.0 °C 30.1in /  1018.3hPa NW 3.7mph /  6km/h 3.7mph /  6km/h 74% 0in /  0.00mm 0.00 W/m2 unknown
22:54 53.6 °F /  12.0 °C 44.6 °F /  7.0 °C 30.1in /  1018.3hPa Calm   3.7mph /  6km/h 74% 0in /  0.00mm 0.00 W/m2 unknown
22:59 53.6 °F /  12.0 °C 44.6 °F /  7.0 °C 30.1in /  1018.3hPa WNW 3.1mph /  5km/h 3.1mph /  5km/h 75% 0in /  0.00mm 0.00 W/m2 unknown
23:04 53.6 °F /  12.0 °C 44.6 °F /  7.0 °C 30.1in /  1018.3hPa WNW 1.9mph /  3km/h 3.1mph /  5km/h 75% 0in /  0.00mm 0.00 W/m2 unknown
23:09 51.8 °F /  11.0 °C 44.6 °F /  7.0 °C 30.1in /  1018.3hPa WNW 1.9mph /  3km/h 1.9mph /  3km/h 75% 0in /  0.00mm 0.00 W/m2 unknown
23:14 51.8 °F /  11.0 °C 44.6 °F /  7.0 °C 30.1in /  1018.3hPa WNW 1.9mph /  3km/h 3.7mph /  6km/h 76% 0in /  0.00mm 0.00 W/m2 unknown
23:19 51.8 °F /  11.0 °C 44.6 °F /  7.0 °C 30.1in /  1018.3hPa NW 3.7mph /  6km/h 3.7mph /  6km/h 76% 0in /  0.00mm 0.00 W/m2 unknown
23:24 51.8 °F /  11.0 °C 44.6 °F /  7.0 °C 30.1in /  1018.3hPa NW 1.9mph /  3km/h 3.7mph /  6km/h 76% 0in /  0.00mm 0.00 W/m2 unknown
23:29 51.8 °F /  11.0 °C 44.6 °F /  7.0 °C 30.1in /  1018.3hPa WNW 5mph /  8km/h 5mph /  8km/h 77% 0in /  0.00mm 0.00 W/m2 unknown
23:34 51.8 °F /  11.0 °C 44.6 °F /  7.0 °C 30.1in /  1018.3hPa NW 3.7mph /  6km/h 5mph /  8km/h 78% 0in /  0.00mm 0.00 W/m2 unknown
23:39 51.8 °F /  11.0 °C 44.6 °F /  7.0 °C 30.1in /  1018.3hPa WNW 3.7mph /  6km/h 5mph /  8km/h 78% 0in /  0.00mm 0.00 W/m2 unknown
23:44 51.8 °F /  11.0 °C 44.6 °F /  7.0 °C 30.1in /  1018.3hPa WNW 3.7mph /  6km/h 5mph /  8km/h 78% 0in /  0.00mm 0.00 W/m2 unknown
23:49 51.8 °F /  11.0 °C 44.6 °F /  7.0 °C 30.1in /  1018.3hPa WNW 1.9mph /  3km/h 3.7mph /  6km/h 77% 0in /  0.00mm 0.00 W/m2 unknown
23:50 51.8 °F /  11.0 °C 44.6 °F /  7.0 °C 30.1in /  1018.3hPa Calm   3.7mph /  6km/h 77% 0in /  0.00mm 0.00 W/m2 unknown
23:55 51.8 °F /  11.0 °C 44.6 °F /  7.0 °C 30.1in /  1018.3hPa WNW 1.2mph /  2km/h 3.1mph /  5km/h 77% 0in /  0.00mm 0.00 W/m2 unknown
Datos historicos para Xert